sensor_id;sensor_type;location;lat;lon;timestamp;temperature;humidity
1011;DHT22;494;48.744;10.106;2023-06-10T00:00:12;17.80;31.00
1011;DHT22;494;48.744;10.106;2023-06-10T00:02:43;17.50;31.60
1011;DHT22;494;48.744;10.106;2023-06-10T00:05:13;17.40;32.20
1011;DHT22;494;48.744;10.106;2023-06-10T00:07:43;17.40;32.30
1011;DHT22;494;48.744;10.106;2023-06-10T00:10:13;17.50;32.30
1011;DHT22;494;48.744;10.106;2023-06-10T00:12:43;17.50;32.10
1011;DHT22;494;48.744;10.106;2023-06-10T00:15:11;17.60;31.80
1011;DHT22;494;48.744;10.106;2023-06-10T00:17:40;17.60;31.60
1011;DHT22;494;48.744;10.106;2023-06-10T00:20:11;17.50;31.90
1011;DHT22;494;48.744;10.106;2023-06-10T00:22:41;17.50;32.00
1011;DHT22;494;48.744;10.106;2023-06-10T00:25:13;17.50;31.80
1011;DHT22;494;48.744;10.106;2023-06-10T00:27:44;17.60;31.70
1011;DHT22;494;48.744;10.106;2023-06-10T00:30:13;17.60;31.60
1011;DHT22;494;48.744;10.106;2023-06-10T00:32:42;17.60;31.50
1011;DHT22;494;48.744;10.106;2023-06-10T00:35:12;17.60;31.40
1011;DHT22;494;48.744;10.106;2023-06-10T00:37:41;17.60;31.20
1011;DHT22;494;48.744;10.106;2023-06-10T00:40:11;17.60;31.10
1011;DHT22;494;48.744;10.106;2023-06-10T00:42:40;17.60;31.30
1011;DHT22;494;48.744;10.106;2023-06-10T00:45:09;17.50;31.70
1011;DHT22;494;48.744;10.106;2023-06-10T00:47:39;17.40;31.70
1011;DHT22;494;48.744;10.106;2023-06-10T00:50:08;17.40;31.60
1011;DHT22;494;48.744;10.106;2023-06-10T00:52:42;17.40;31.80
1011;DHT22;494;48.744;10.106;2023-06-10T00:55:13;17.20;32.30
1011;DHT22;494;48.744;10.106;2023-06-10T00:57:45;17.20;32.40
1011;DHT22;494;48.744;10.106;2023-06-10T01:00:15;17.10;32.50
1011;DHT22;494;48.744;10.106;2023-06-10T01:02:44;17.10;32.60
1011;DHT22;494;48.744;10.106;2023-06-10T01:05:15;17.00;32.80
1011;DHT22;494;48.744;10.106;2023-06-10T01:07:50;16.90;33.00
1011;DHT22;494;48.744;10.106;2023-06-10T01:10:32;16.80;33.20
1011;DHT22;494;48.744;10.106;2023-06-10T01:13:07;16.90;34.10
1011;DHT22;494;48.744;10.106;2023-06-10T01:15:39;16.80;34.10
1011;DHT22;494;48.744;10.106;2023-06-10T01:18:10;16.80;33.40
1011;DHT22;494;48.744;10.106;2023-06-10T01:20:43;16.80;33.50
1011;DHT22;494;48.744;10.106;2023-06-10T01:23:15;16.80;34.00
1011;DHT22;494;48.744;10.106;2023-06-10T01:25:49;16.80;34.30
1011;DHT22;494;48.744;10.106;2023-06-10T01:28:27;16.80;34.10
1011;DHT22;494;48.744;10.106;2023-06-10T01:31:09;16.80;34.20
1011;DHT22;494;48.744;10.106;2023-06-10T01:33:52;16.70;34.10
1011;DHT22;494;48.744;10.106;2023-06-10T01:36:22;16.70;34.40
1011;DHT22;494;48.744;10.106;2023-06-10T01:38:53;16.70;34.30
1011;DHT22;494;48.744;10.106;2023-06-10T01:41:24;16.80;34.50
1011;DHT22;494;48.744;10.106;2023-06-10T01:43:54;16.80;34.10
1011;DHT22;494;48.744;10.106;2023-06-10T01:46:23;16.70;33.90
1011;DHT22;494;48.744;10.106;2023-06-10T01:48:52;16.70;33.80
1011;DHT22;494;48.744;10.106;2023-06-10T01:51:21;16.80;33.80
1011;DHT22;494;48.744;10.106;2023-06-10T01:53:50;16.80;33.70
1011;DHT22;494;48.744;10.106;2023-06-10T01:56:20;16.80;34.20
1011;DHT22;494;48.744;10.106;2023-06-10T01:58:49;16.80;33.70
1011;DHT22;494;48.744;10.106;2023-06-10T02:01:18;16.70;33.80
1011;DHT22;494;48.744;10.106;2023-06-10T02:03:47;16.60;33.60
1011;DHT22;494;48.744;10.106;2023-06-10T02:06:16;16.60;33.70
1011;DHT22;494;48.744;10.106;2023-06-10T02:08:45;16.60;33.90
1011;DHT22;494;48.744;10.106;2023-06-10T02:11:14;16.50;34.20
1011;DHT22;494;48.744;10.106;2023-06-10T02:13:44;16.30;34.60
1011;DHT22;494;48.744;10.106;2023-06-10T02:16:12;16.30;34.90
1011;DHT22;494;48.744;10.106;2023-06-10T02:18:44;16.30;34.90
1011;DHT22;494;48.744;10.106;2023-06-10T02:21:13;16.30;35.10
1011;DHT22;494;48.744;10.106;2023-06-10T02:23:41;16.20;35.30
1011;DHT22;494;48.744;10.106;2023-06-10T02:26:10;16.20;35.40
1011;DHT22;494;48.744;10.106;2023-06-10T02:28:43;16.30;35.40
1011;DHT22;494;48.744;10.106;2023-06-10T02:31:13;16.20;35.30
1011;DHT22;494;48.744;10.106;2023-06-10T02:33:45;16.30;35.30
1011;DHT22;494;48.744;10.106;2023-06-10T02:36:14;16.30;35.10
1011;DHT22;494;48.744;10.106;2023-06-10T02:38:42;16.30;34.90
1011;DHT22;494;48.744;10.106;2023-06-10T02:41:11;16.30;34.90
1011;DHT22;494;48.744;10.106;2023-06-10T02:43:39;16.30;35.00
1011;DHT22;494;48.744;10.106;2023-06-10T02:46:09;16.30;35.20
1011;DHT22;494;48.744;10.106;2023-06-10T02:48:42;16.30;35.20
1011;DHT22;494;48.744;10.106;2023-06-10T02:51:12;16.30;35.10
1011;DHT22;494;48.744;10.106;2023-06-10T02:53:40;16.20;35.40
1011;DHT22;494;48.744;10.106;2023-06-10T02:56:09;16.20;35.70
1011;DHT22;494;48.744;10.106;2023-06-10T02:58:40;16.30;36.10
1011;DHT22;494;48.744;10.106;2023-06-10T03:01:13;16.20;36.10
1011;DHT22;494;48.744;10.106;2023-06-10T03:03:42;16.20;36.20
1011;DHT22;494;48.744;10.106;2023-06-10T03:06:13;16.20;36.10
1011;DHT22;494;48.744;10.106;2023-06-10T03:08:42;16.30;36.00
1011;DHT22;494;48.744;10.106;2023-06-10T03:11:12;16.30;36.10
1011;DHT22;494;48.744;10.106;2023-06-10T03:13:41;16.30;36.20
1011;DHT22;494;48.744;10.106;2023-06-10T03:16:10;16.20;36.40
1011;DHT22;494;48.744;10.106;2023-06-10T03:18:40;16.10;36.50
1011;DHT22;494;48.744;10.106;2023-06-10T03:21:12;16.00;36.40
1011;DHT22;494;48.744;10.106;2023-06-10T03:23:41;16.10;36.30
1011;DHT22;494;48.744;10.106;2023-06-10T03:26:10;16.00;36.10
1011;DHT22;494;48.744;10.106;2023-06-10T03:28:40;16.00;36.30
1011;DHT22;494;48.744;10.106;2023-06-10T03:31:09;15.90;36.50
1011;DHT22;494;48.744;10.106;2023-06-10T03:33:37;15.90;36.90
1011;DHT22;494;48.744;10.106;2023-06-10T03:36:08;15.90;37.10
1011;DHT22;494;48.744;10.106;2023-06-10T03:38:37;15.90;37.00
1011;DHT22;494;48.744;10.106;2023-06-10T03:41:05;15.90;37.50
1011;DHT22;494;48.744;10.106;2023-06-10T03:43:34;15.90;36.90
1011;DHT22;494;48.744;10.106;2023-06-10T03:46:02;15.90;36.90
1011;DHT22;494;48.744;10.106;2023-06-10T03:48:32;16.00;36.90
1011;DHT22;494;48.744;10.106;2023-06-10T03:51:01;16.00;36.90
1011;DHT22;494;48.744;10.106;2023-06-10T03:53:31;16.10;37.60
1011;DHT22;494;48.744;10.106;2023-06-10T03:56:02;16.10;36.90
1011;DHT22;494;48.744;10.106;2023-06-10T03:58:30;16.10;36.80
1011;DHT22;494;48.744;10.106;2023-06-10T04:00:59;16.20;36.60
1011;DHT22;494;48.744;10.106;2023-06-10T04:03:29;16.20;36.50
1011;DHT22;494;48.744;10.106;2023-06-10T04:05:59;16.20;36.40
1011;DHT22;494;48.744;10.106;2023-06-10T04:08:28;16.30;36.30
1011;DHT22;494;48.744;10.106;2023-06-10T04:11:03;16.30;36.10
1011;DHT22;494;48.744;10.106;2023-06-10T04:13:32;16.40;36.10
1011;DHT22;494;48.744;10.106;2023-06-10T04:16:01;16.40;35.90
1011;DHT22;494;48.744;10.106;2023-06-10T04:18:31;16.50;35.90
1011;DHT22;494;48.744;10.106;2023-06-10T04:20:59;16.50;36.40
1011;DHT22;494;48.744;10.106;2023-06-10T04:23:28;16.60;35.60
1011;DHT22;494;48.744;10.106;2023-06-10T04:25:59;16.70;35.60
1011;DHT22;494;48.744;10.106;2023-06-10T04:28:27;16.80;35.40
1011;DHT22;494;48.744;10.106;2023-06-10T04:30:56;16.80;35.20
1011;DHT22;494;48.744;10.106;2023-06-10T04:33:25;17.00;35.90
1011;DHT22;494;48.744;10.106;2023-06-10T04:35:55;17.00;35.50
1011;DHT22;494;48.744;10.106;2023-06-10T04:38:24;17.10;34.80
1011;DHT22;494;48.744;10.106;2023-06-10T04:40:53;17.20;34.40
1011;DHT22;494;48.744;10.106;2023-06-10T04:43:23;17.20;34.30
1011;DHT22;494;48.744;10.106;2023-06-10T04:45:52;17.20;34.60
1011;DHT22;494;48.744;10.106;2023-06-10T04:48:20;17.40;34.70
1011;DHT22;494;48.744;10.106;2023-06-10T04:50:50;17.50;34.60
1011;DHT22;494;48.744;10.106;2023-06-10T04:53:19;17.60;34.30
1011;DHT22;494;48.744;10.106;2023-06-10T04:55:48;17.70;34.00
1011;DHT22;494;48.744;10.106;2023-06-10T04:58:16;17.80;33.80
1011;DHT22;494;48.744;10.106;2023-06-10T05:00:49;17.80;34.30
1011;DHT22;494;48.744;10.106;2023-06-10T05:03:18;17.90;33.70
1011;DHT22;494;48.744;10.106;2023-06-10T05:05:47;17.90;33.90
1011;DHT22;494;48.744;10.106;2023-06-10T05:08:16;18.00;34.00
1011;DHT22;494;48.744;10.106;2023-06-10T05:10:45;18.10;34.10
1011;DHT22;494;48.744;10.106;2023-06-10T05:13:16;18.20;33.90
1011;DHT22;494;48.744;10.106;2023-06-10T05:15:45;18.30;33.60
1011;DHT22;494;48.744;10.106;2023-06-10T05:18:15;18.50;33.50
1011;DHT22;494;48.744;10.106;2023-06-10T05:20:44;18.60;33.20
1011;DHT22;494;48.744;10.106;2023-06-10T05:23:13;18.70;32.90
1011;DHT22;494;48.744;10.106;2023-06-10T05:25:43;18.80;33.20
1011;DHT22;494;48.744;10.106;2023-06-10T05:28:11;18.90;32.30
1011;DHT22;494;48.744;10.106;2023-06-10T05:30:42;19.00;31.90
1011;DHT22;494;48.744;10.106;2023-06-10T05:33:12;19.20;31.00
1011;DHT22;494;48.744;10.106;2023-06-10T05:35:41;19.30;30.70
1011;DHT22;494;48.744;10.106;2023-06-10T05:38:09;19.40;30.50
1011;DHT22;494;48.744;10.106;2023-06-10T05:40:38;19.60;29.90
1011;DHT22;494;48.744;10.106;2023-06-10T05:43:07;19.80;29.40
1011;DHT22;494;48.744;10.106;2023-06-10T05:45:37;19.90;29.60
1011;DHT22;494;48.744;10.106;2023-06-10T05:48:07;20.10;29.00
1011;DHT22;494;48.744;10.106;2023-06-10T05:50:39;20.40;28.40
1011;DHT22;494;48.744;10.106;2023-06-10T05:53:09;20.60;27.20
1011;DHT22;494;48.744;10.106;2023-06-10T05:55:42;20.80;26.70
1011;DHT22;494;48.744;10.106;2023-06-10T05:58:12;21.00;26.50
1011;DHT22;494;48.744;10.106;2023-06-10T06:00:41;21.20;26.10
1011;DHT22;494;48.744;10.106;2023-06-10T06:03:10;21.50;25.50
1011;DHT22;494;48.744;10.106;2023-06-10T06:05:40;21.60;24.00
1011;DHT22;494;48.744;10.106;2023-06-10T06:08:10;21.70;24.70
1011;DHT22;494;48.744;10.106;2023-06-10T06:10:40;22.00;23.50
1011;DHT22;494;48.744;10.106;2023-06-10T06:13:09;22.10;22.00
1011;DHT22;494;48.744;10.106;2023-06-10T06:15:37;22.10;21.30
1011;DHT22;494;48.744;10.106;2023-06-10T06:18:06;22.30;21.40
1011;DHT22;494;48.744;10.106;2023-06-10T06:20:34;22.40;20.80
1011;DHT22;494;48.744;10.106;2023-06-10T06:23:05;22.50;20.30
1011;DHT22;494;48.744;10.106;2023-06-10T06:25:35;22.70;20.10
1011;DHT22;494;48.744;10.106;2023-06-10T06:28:06;22.70;20.20
1011;DHT22;494;48.744;10.106;2023-06-10T06:30:36;22.60;19.80
1011;DHT22;494;48.744;10.106;2023-06-10T06:33:05;22.70;19.90
1011;DHT22;494;48.744;10.106;2023-06-10T06:35:34;22.80;19.50
1011;DHT22;494;48.744;10.106;2023-06-10T06:38:04;22.90;18.90
1011;DHT22;494;48.744;10.106;2023-06-10T06:40:32;23.20;18.80
1011;DHT22;494;48.744;10.106;2023-06-10T06:43:01;23.40;18.40
1011;DHT22;494;48.744;10.106;2023-06-10T06:45:29;23.50;18.90
1011;DHT22;494;48.744;10.106;2023-06-10T06:48:00;23.70;18.30
1011;DHT22;494;48.744;10.106;2023-06-10T06:50:29;24.00;17.50
1011;DHT22;494;48.744;10.106;2023-06-10T06:52:58;24.30;17.00
1011;DHT22;494;48.744;10.106;2023-06-10T06:55:28;24.50;16.10
1011;DHT22;494;48.744;10.106;2023-06-10T06:57:57;24.60;15.00
1011;DHT22;494;48.744;10.106;2023-06-10T07:00:30;24.80;15.30
1011;DHT22;494;48.744;10.106;2023-06-10T07:02:58;25.00;14.40
1011;DHT22;494;48.744;10.106;2023-06-10T07:05:27;25.10;15.10
1011;DHT22;494;48.744;10.106;2023-06-10T07:07:57;25.20;14.50
1011;DHT22;494;48.744;10.106;2023-06-10T07:10:27;25.30;14.20
1011;DHT22;494;48.744;10.106;2023-06-10T07:12:57;25.40;13.80
1011;DHT22;494;48.744;10.106;2023-06-10T07:15:25;25.40;13.00
1011;DHT22;494;48.744;10.106;2023-06-10T07:17:54;25.60;13.20
1011;DHT22;494;48.744;10.106;2023-06-10T07:20:23;25.70;12.90
1011;DHT22;494;48.744;10.106;2023-06-10T07:22:52;25.90;12.20
1011;DHT22;494;48.744;10.106;2023-06-10T07:25:20;25.90;12.10
1011;DHT22;494;48.744;10.106;2023-06-10T07:27:51;25.90;12.60
1011;DHT22;494;48.744;10.106;2023-06-10T07:30:19;26.00;12.80
1011;DHT22;494;48.744;10.106;2023-06-10T07:32:48;26.30;13.00
1011;DHT22;494;48.744;10.106;2023-06-10T07:35:18;26.40;12.20
1011;DHT22;494;48.744;10.106;2023-06-10T07:37:47;26.80;11.40
1011;DHT22;494;48.744;10.106;2023-06-10T07:40:15;26.90;10.70
1011;DHT22;494;48.744;10.106;2023-06-10T07:42:44;27.20;11.10
1011;DHT22;494;48.744;10.106;2023-06-10T07:45:14;27.30;9.50
1011;DHT22;494;48.744;10.106;2023-06-10T07:47:43;27.50;9.20
1011;DHT22;494;48.744;10.106;2023-06-10T07:50:12;27.50;9.60
1011;DHT22;494;48.744;10.106;2023-06-10T07:52:41;27.80;9.10
1011;DHT22;494;48.744;10.106;2023-06-10T07:55:09;27.90;8.90
1011;DHT22;494;48.744;10.106;2023-06-10T07:57:38;28.10;10.00
1011;DHT22;494;48.744;10.106;2023-06-10T08:00:08;28.20;9.20
1011;DHT22;494;48.744;10.106;2023-06-10T08:02:39;28.40;8.40
1011;DHT22;494;48.744;10.106;2023-06-10T08:05:08;28.50;10.00
1011;DHT22;494;48.744;10.106;2023-06-10T08:07:38;28.40;8.50
1011;DHT22;494;48.744;10.106;2023-06-10T08:10:08;28.30;7.90
1011;DHT22;494;48.744;10.106;2023-06-10T08:12:36;28.50;8.00
1011;DHT22;494;48.744;10.106;2023-06-10T08:15:06;28.50;8.40
1011;DHT22;494;48.744;10.106;2023-06-10T08:17:38;28.60;7.70
1011;DHT22;494;48.744;10.106;2023-06-10T08:20:08;28.50;7.00
1011;DHT22;494;48.744;10.106;2023-06-10T08:22:37;28.20;7.80
1011;DHT22;494;48.744;10.106;2023-06-10T08:25:07;27.90;8.60
1011;DHT22;494;48.744;10.106;2023-06-10T08:27:37;27.90;8.80
1011;DHT22;494;48.744;10.106;2023-06-10T08:30:07;28.00;9.00
1011;DHT22;494;48.744;10.106;2023-06-10T08:32:39;28.20;8.20
1011;DHT22;494;48.744;10.106;2023-06-10T08:35:08;28.30;8.90
1011;DHT22;494;48.744;10.106;2023-06-10T08:37:38;28.50;8.30
1011;DHT22;494;48.744;10.106;2023-06-10T08:40:08;28.70;8.70
1011;DHT22;494;48.744;10.106;2023-06-10T08:42:40;28.80;8.60
1011;DHT22;494;48.744;10.106;2023-06-10T08:45:17;28.90;8.20
1011;DHT22;494;48.744;10.106;2023-06-10T08:47:50;29.00;7.60
1011;DHT22;494;48.744;10.106;2023-06-10T08:50:21;29.00;7.90
1011;DHT22;494;48.744;10.106;2023-06-10T08:52:53;28.80;7.50
1011;DHT22;494;48.744;10.106;2023-06-10T08:55:27;29.00;8.40
1011;DHT22;494;48.744;10.106;2023-06-10T08:57:59;29.00;7.00
1011;DHT22;494;48.744;10.106;2023-06-10T09:00:29;28.90;7.60
1011;DHT22;494;48.744;10.106;2023-06-10T09:03:00;29.00;7.50
1011;DHT22;494;48.744;10.106;2023-06-10T09:05:33;29.30;6.60
1011;DHT22;494;48.744;10.106;2023-06-10T09:08:04;29.30;6.60
1011;DHT22;494;48.744;10.106;2023-06-10T09:10:34;29.30;5.90
1011;DHT22;494;48.744;10.106;2023-06-10T09:13:03;28.80;5.80
1011;DHT22;494;48.744;10.106;2023-06-10T09:15:32;28.60;7.30
1011;DHT22;494;48.744;10.106;2023-06-10T09:18:03;28.80;7.80
1011;DHT22;494;48.744;10.106;2023-06-10T09:20:32;28.80;7.70
1011;DHT22;494;48.744;10.106;2023-06-10T09:23:01;29.00;7.80
1011;DHT22;494;48.744;10.106;2023-06-10T09:25:37;29.40;7.60
1011;DHT22;494;48.744;10.106;2023-06-10T09:28:13;29.90;5.50
1011;DHT22;494;48.744;10.106;2023-06-10T09:30:43;30.10;6.30
1011;DHT22;494;48.744;10.106;2023-06-10T09:33:14;30.10;6.00
1011;DHT22;494;48.744;10.106;2023-06-10T09:35:47;30.10;6.80
1011;DHT22;494;48.744;10.106;2023-06-10T09:38:20;30.00;6.10
1011;DHT22;494;48.744;10.106;2023-06-10T09:40:50;29.90;6.30
1011;DHT22;494;48.744;10.106;2023-06-10T09:43:20;29.90;5.90
1011;DHT22;494;48.744;10.106;2023-06-10T09:45:49;29.80;7.00
1011;DHT22;494;48.744;10.106;2023-06-10T09:48:21;29.70;5.70
1011;DHT22;494;48.744;10.106;2023-06-10T09:50:50;29.50;5.90
1011;DHT22;494;48.744;10.106;2023-06-10T09:53:20;29.40;6.70
1011;DHT22;494;48.744;10.106;2023-06-10T09:55:49;29.30;7.20
1011;DHT22;494;48.744;10.106;2023-06-10T09:58:34;29.40;6.30
1011;DHT22;494;48.744;10.106;2023-06-10T10:01:07;29.40;6.40
1011;DHT22;494;48.744;10.106;2023-06-10T10:03:46;29.40;7.20
1011;DHT22;494;48.744;10.106;2023-06-10T10:06:16;29.60;5.40
1011;DHT22;494;48.744;10.106;2023-06-10T10:08:47;29.70;5.30
1011;DHT22;494;48.744;10.106;2023-06-10T10:11:19;29.90;5.30
1011;DHT22;494;48.744;10.106;2023-06-10T10:13:50;30.50;4.90
1011;DHT22;494;48.744;10.106;2023-06-10T10:16:21;30.80;4.40
1011;DHT22;494;48.744;10.106;2023-06-10T10:19:04;31.10;3.90
1011;DHT22;494;48.744;10.106;2023-06-10T10:21:43;31.20;3.90
1011;DHT22;494;48.744;10.106;2023-06-10T10:24:32;30.90;3.70
1011;DHT22;494;48.744;10.106;2023-06-10T10:27:07;30.50;4.50
1011;DHT22;494;48.744;10.106;2023-06-10T10:29:46;30.20;5.10
1011;DHT22;494;48.744;10.106;2023-06-10T10:32:18;30.10;4.10
1011;DHT22;494;48.744;10.106;2023-06-10T10:35:01;30.10;5.40
1011;DHT22;494;48.744;10.106;2023-06-10T10:37:35;30.40;4.10
1011;DHT22;494;48.744;10.106;2023-06-10T10:40:06;30.30;4.00
1011;DHT22;494;48.744;10.106;2023-06-10T10:42:36;30.00;4.40
1011;DHT22;494;48.744;10.106;2023-06-10T10:45:09;29.80;4.80
1011;DHT22;494;48.744;10.106;2023-06-10T10:47:39;29.80;5.20
1011;DHT22;494;48.744;10.106;2023-06-10T10:50:18;29.80;5.00
1011;DHT22;494;48.744;10.106;2023-06-10T10:52:55;29.80;4.00
1011;DHT22;494;48.744;10.106;2023-06-10T10:55:25;30.00;4.40
1011;DHT22;494;48.744;10.106;2023-06-10T10:57:55;30.20;4.30
1011;DHT22;494;48.744;10.106;2023-06-10T11:00:27;30.50;3.70
1011;DHT22;494;48.744;10.106;2023-06-10T11:03:04;30.80;3.10
1011;DHT22;494;48.744;10.106;2023-06-10T11:05:41;31.10;3.10
1011;DHT22;494;48.744;10.106;2023-06-10T11:08:11;31.30;3.10
1011;DHT22;494;48.744;10.106;2023-06-10T11:10:42;31.40;3.20
1011;DHT22;494;48.744;10.106;2023-06-10T11:13:21;31.20;3.10
1011;DHT22;494;48.744;10.106;2023-06-10T11:15:50;30.90;4.30
1011;DHT22;494;48.744;10.106;2023-06-10T11:18:23;31.20;3.80
1011;DHT22;494;48.744;10.106;2023-06-10T11:20:56;31.70;2.90
1011;DHT22;494;48.744;10.106;2023-06-10T11:23:41;32.10;2.20
1011;DHT22;494;48.744;10.106;2023-06-10T11:29:07;32.70;1.80
1011;DHT22;494;48.744;10.106;2023-06-10T11:31:45;32.90;1.00
1011;DHT22;494;48.744;10.106;2023-06-10T11:34:22;32.70;1.40
1011;DHT22;494;48.744;10.106;2023-06-10T11:36:53;32.50;1.80
1011;DHT22;494;48.744;10.106;2023-06-10T11:39:23;32.70;2.80
1011;DHT22;494;48.744;10.106;2023-06-10T11:41:53;33.00;1.80
1011;DHT22;494;48.744;10.106;2023-06-10T11:44:27;33.00;2.50
1011;DHT22;494;48.744;10.106;2023-06-10T11:46:57;32.80;1.70
1011;DHT22;494;48.744;10.106;2023-06-10T11:49:26;32.50;2.00
1011;DHT22;494;48.744;10.106;2023-06-10T11:51:56;32.50;2.30
1011;DHT22;494;48.744;10.106;2023-06-10T11:54:24;32.80;2.30
1011;DHT22;494;48.744;10.106;2023-06-10T11:56:57;32.60;2.70
1011;DHT22;494;48.744;10.106;2023-06-10T11:59:27;32.40;2.60
1011;DHT22;494;48.744;10.106;2023-06-10T12:01:57;32.10;2.90
1011;DHT22;494;48.744;10.106;2023-06-10T12:04:27;31.70;3.40
1011;DHT22;494;48.744;10.106;2023-06-10T12:06:56;31.40;3.70
1011;DHT22;494;48.744;10.106;2023-06-10T12:09:27;31.10;4.10
1011;DHT22;494;48.744;10.106;2023-06-10T12:11:58;31.00;4.60
1011;DHT22;494;48.744;10.106;2023-06-10T12:14:51;31.40;3.80
1011;DHT22;494;48.744;10.106;2023-06-10T12:17:36;32.00;4.30
1011;DHT22;494;48.744;10.106;2023-06-10T12:20:07;32.70;2.20
1011;DHT22;494;48.744;10.106;2023-06-10T12:22:42;32.90;1.20
1011;DHT22;494;48.744;10.106;2023-06-10T12:25:12;33.00;1.50
1011;DHT22;494;48.744;10.106;2023-06-10T12:27:51;32.80;1.20
1011;DHT22;494;48.744;10.106;2023-06-10T12:30:21;32.90;2.40
1011;DHT22;494;48.744;10.106;2023-06-10T12:32:52;33.00;2.50
1011;DHT22;494;48.744;10.106;2023-06-10T12:35:23;32.70;2.20
1011;DHT22;494;48.744;10.106;2023-06-10T12:37:59;32.50;2.60
1011;DHT22;494;48.744;10.106;2023-06-10T12:40:31;32.30;2.60
1011;DHT22;494;48.744;10.106;2023-06-10T12:43:02;31.90;2.90
1011;DHT22;494;48.744;10.106;2023-06-10T12:45:32;31.60;3.00
1011;DHT22;494;48.744;10.106;2023-06-10T12:48:05;31.30;3.40
1011;DHT22;494;48.744;10.106;2023-06-10T12:50:38;30.90;3.00
1011;DHT22;494;48.744;10.106;2023-06-10T12:53:10;30.70;3.80
1011;DHT22;494;48.744;10.106;2023-06-10T12:55:39;30.60;4.50
1011;DHT22;494;48.744;10.106;2023-06-10T12:58:08;30.60;4.70
1011;DHT22;494;48.744;10.106;2023-06-10T13:00:36;30.80;5.00
1011;DHT22;494;48.744;10.106;2023-06-10T13:03:06;31.40;3.90
1011;DHT22;494;48.744;10.106;2023-06-10T13:05:36;32.00;3.10
1011;DHT22;494;48.744;10.106;2023-06-10T13:08:06;32.20;2.60
1011;DHT22;494;48.744;10.106;2023-06-10T13:10:38;32.00;2.70
1011;DHT22;494;48.744;10.106;2023-06-10T13:13:07;32.00;3.00
1011;DHT22;494;48.744;10.106;2023-06-10T13:15:38;32.30;1.60
1011;DHT22;494;48.744;10.106;2023-06-10T13:18:10;32.90;2.00
1011;DHT22;494;48.744;10.106;2023-06-10T13:20:39;33.40;1.30
1011;DHT22;494;48.744;10.106;2023-06-10T13:23:08;33.70;1.00
1011;DHT22;494;48.744;10.106;2023-06-10T13:25:38;33.90;1.00
1011;DHT22;494;48.744;10.106;2023-06-10T13:28:07;34.20;1.00
1011;DHT22;494;48.744;10.106;2023-06-10T13:30:36;34.60;1.00
1011;DHT22;494;48.744;10.106;2023-06-10T13:33:05;35.00;1.00
1011;DHT22;494;48.744;10.106;2023-06-10T13:35:34;35.10;1.00
1011;DHT22;494;48.744;10.106;2023-06-10T13:38:03;35.40;1.00
1011;DHT22;494;48.744;10.106;2023-06-10T13:40:31;35.50;1.00
1011;DHT22;494;48.744;10.106;2023-06-10T13:43:01;35.60;1.00
1011;DHT22;494;48.744;10.106;2023-06-10T13:45:30;35.50;1.00
1011;DHT22;494;48.744;10.106;2023-06-10T13:47:59;35.60;1.00
1011;DHT22;494;48.744;10.106;2023-06-10T13:50:28;35.70;1.00
1011;DHT22;494;48.744;10.106;2023-06-10T13:52:56;36.10;1.00
1011;DHT22;494;48.744;10.106;2023-06-10T13:55:29;36.30;1.00
1011;DHT22;494;48.744;10.106;2023-06-10T13:57:58;36.50;1.00
1011;DHT22;494;48.744;10.106;2023-06-10T14:00:28;36.50;1.00
1011;DHT22;494;48.744;10.106;2023-06-10T14:02:56;36.20;1.00
1011;DHT22;494;48.744;10.106;2023-06-10T14:05:25;36.00;1.00
1011;DHT22;494;48.744;10.106;2023-06-10T14:07:57;36.10;1.00
1011;DHT22;494;48.744;10.106;2023-06-10T14:10:26;36.50;1.00
1011;DHT22;494;48.744;10.106;2023-06-10T14:12:55;36.30;1.00
1011;DHT22;494;48.744;10.106;2023-06-10T14:15:23;36.10;1.00
1011;DHT22;494;48.744;10.106;2023-06-10T14:17:54;35.90;1.00
1011;DHT22;494;48.744;10.106;2023-06-10T14:20:22;35.90;1.00
1011;DHT22;494;48.744;10.106;2023-06-10T14:22:52;36.10;1.00
1011;DHT22;494;48.744;10.106;2023-06-10T14:25:21;35.60;1.00
1011;DHT22;494;48.744;10.106;2023-06-10T14:27:49;35.80;1.00
1011;DHT22;494;48.744;10.106;2023-06-10T14:30:18;35.90;1.00
1011;DHT22;494;48.744;10.106;2023-06-10T14:32:46;36.10;1.00
1011;DHT22;494;48.744;10.106;2023-06-10T14:35:17;36.20;1.00
1011;DHT22;494;48.744;10.106;2023-06-10T14:37:45;36.30;1.00
1011;DHT22;494;48.744;10.106;2023-06-10T14:40:14;36.50;1.00
1011;DHT22;494;48.744;10.106;2023-06-10T14:42:43;36.50;1.00
1011;DHT22;494;48.744;10.106;2023-06-10T14:45:12;36.60;1.00
1011;DHT22;494;48.744;10.106;2023-06-10T14:47:41;36.10;1.00
1011;DHT22;494;48.744;10.106;2023-06-10T14:50:10;35.60;1.00
1011;DHT22;494;48.744;10.106;2023-06-10T14:52:40;35.60;1.00
1011;DHT22;494;48.744;10.106;2023-06-10T14:55:09;35.80;1.00
1011;DHT22;494;48.744;10.106;2023-06-10T14:57:38;35.90;1.00
1011;DHT22;494;48.744;10.106;2023-06-10T15:00:08;36.00;1.00
1011;DHT22;494;48.744;10.106;2023-06-10T15:02:37;36.00;1.00
1011;DHT22;494;48.744;10.106;2023-06-10T15:05:10;35.60;1.00
1011;DHT22;494;48.744;10.106;2023-06-10T15:07:40;35.60;1.00
1011;DHT22;494;48.744;10.106;2023-06-10T15:10:09;35.60;1.00
1011;DHT22;494;48.744;10.106;2023-06-10T15:12:38;35.90;1.00
1011;DHT22;494;48.744;10.106;2023-06-10T15:15:12;36.00;1.00
1011;DHT22;494;48.744;10.106;2023-06-10T15:17:41;36.30;1.00
1011;DHT22;494;48.744;10.106;2023-06-10T15:20:10;36.40;1.00
1011;DHT22;494;48.744;10.106;2023-06-10T15:22:40;36.30;1.00
1011;DHT22;494;48.744;10.106;2023-06-10T15:25:11;36.20;1.00
1011;DHT22;494;48.744;10.106;2023-06-10T15:27:56;35.80;1.00
1011;DHT22;494;48.744;10.106;2023-06-10T15:30:25;34.80;1.00
1011;DHT22;494;48.744;10.106;2023-06-10T15:32:55;34.00;1.00
1011;DHT22;494;48.744;10.106;2023-06-10T15:35:24;33.70;1.00
1011;DHT22;494;48.744;10.106;2023-06-10T15:37:55;33.50;1.00
1011;DHT22;494;48.744;10.106;2023-06-10T15:40:24;33.50;1.00
1011;DHT22;494;48.744;10.106;2023-06-10T15:42:52;33.50;1.00
1011;DHT22;494;48.744;10.106;2023-06-10T15:45:21;33.50;1.00
1011;DHT22;494;48.744;10.106;2023-06-10T15:47:50;33.60;1.00
1011;DHT22;494;48.744;10.106;2023-06-10T15:50:19;33.70;1.00
1011;DHT22;494;48.744;10.106;2023-06-10T15:52:48;33.50;1.00
1011;DHT22;494;48.744;10.106;2023-06-10T15:55:19;33.10;1.60
1011;DHT22;494;48.744;10.106;2023-06-10T15:57:48;32.60;2.20
1011;DHT22;494;48.744;10.106;2023-06-10T16:00:18;32.10;2.80
1011;DHT22;494;48.744;10.106;2023-06-10T16:02:47;31.60;3.10
1011;DHT22;494;48.744;10.106;2023-06-10T16:05:16;31.10;3.60
1011;DHT22;494;48.744;10.106;2023-06-10T16:07:45;30.90;3.30
1011;DHT22;494;48.744;10.106;2023-06-10T16:10:15;31.20;3.90
1011;DHT22;494;48.744;10.106;2023-06-10T16:12:45;31.70;2.80
1011;DHT22;494;48.744;10.106;2023-06-10T16:15:13;32.30;3.10
1011;DHT22;494;48.744;10.106;2023-06-10T16:17:42;32.70;1.70
1011;DHT22;494;48.744;10.106;2023-06-10T16:20:11;33.10;1.60
1011;DHT22;494;48.744;10.106;2023-06-10T16:22:40;33.40;1.30
1011;DHT22;494;48.744;10.106;2023-06-10T16:25:08;33.50;1.00
1011;DHT22;494;48.744;10.106;2023-06-10T16:27:38;33.40;1.00
1011;DHT22;494;48.744;10.106;2023-06-10T16:30:09;33.00;1.00
1011;DHT22;494;48.744;10.106;2023-06-10T16:32:39;32.70;1.70